This is the latest recevied weather packets stored in our database for station/object OE-11138. If no packets are shown the sender has not sent any weather packets the latest 10 day(s).
| Time | Temp. | Humidity | Pressure | Rain* | Wind** | Luminosity | Snow |
|---|---|---|---|---|---|---|---|
| 1787668895 | 8.33° C | 97% | 711 hPa | 0.25 mm | - | 43 W/m² | - |
| 1787668522 | 7.78° C | 97% | 710.7 hPa | 0 mm | - | 61 W/m² | - |
| 1787667921 | 8.33° C | 97% | 710.7 hPa | 0 mm | - | 73 W/m² | - |
| 1787667095 | 8.33° C | 97% | 710.6 hPa | 0 mm | - | 73 W/m² | - |
| 1787666722 | 8.33° C | 95% | 710.5 hPa | 0 mm | - | 115 W/m² | - |
| 1787666122 | 8.33° C | 94% | 710.5 hPa | 0 mm | - | 103 W/m² | - |
| 1787665295 | 8.33° C | 95% | 710.5 hPa | 0.51 mm | - | 97 W/m² | - |
| 1787664922 | 8.89° C | 93% | 710.5 hPa | 0.51 mm | - | 152 W/m² | - |
| 1787664322 | 8.89° C | 90% | 710.5 hPa | 0.51 mm | - | 334 W/m² | - |
| 1787663495 | 8.89° C | 92% | 710.5 hPa | 0.51 mm | - | 346 W/m² | - |
| 1787663122 | 8.33° C | 92% | 710.4 hPa | 0.51 mm | - | 194 W/m² | - |
| 1787662522 | 8.33° C | 93% | 710.3 hPa | 0.51 mm | - | 140 W/m² | - |
| 1787661695 | 8.33° C | 93% | 710.2 hPa | 0.51 mm | - | 134 W/m² | - |
| 1787661322 | 8.33° C | 91% | 710.2 hPa | 0 mm | - | 109 W/m² | - |
| 1787660722 | 8.89° C | 89% | 710.3 hPa | 0 mm | - | 146 W/m² | - |
| 1787660134 | 8.89° C | 91% | 710.3 hPa | 0 mm | - | 304 W/m² | - |
| 1787659521 | 9.44° C | 79% | 710.4 hPa | 0 mm | - | 358 W/m² | - |
| 1787658922 | 9.44° C | 82% | 710.3 hPa | 0 mm | - | 468 W/m² | - |
| 1787658095 | 9.44° C | 82% | 710.2 hPa | 0 mm | - | 595 W/m² | - |
| 1787657721 | 9.44° C | 82% | 710 hPa | 0 mm | - | 419 W/m² | - |
| 1787657121 | 9.44° C | 82% | 710.1 hPa | 0 mm | - | 510 W/m² | - |
| 1787654494 | 9.44° C | 81% | 710 hPa | 0 mm | - | 486 W/m² | - |
| 1787654114 | 9.44° C | 84% | 710 hPa | 0 mm | - | 789 W/m² | - |
| 1787652320 | 8.33° C | 86% | 709.4 hPa | 0 mm | - | 358 W/m² | - |
| 1787651720 | 7.78° C | 88% | 709.6 hPa | 0 mm | - | 249 W/m² | - |
* Rain latest hour (hover to see other rain measurements)
** Current wind speed in m/s (hover to see current wind gust speed)